Nearby METAR Reports

 

KBAX - Bad Axe, Michigan, USA
Distance from station: ESE 22mi, 35km
Updated: Mon, 24-Jul-2017 6:16am EDT
Light rain, Overcast
Light rain, Overcast
 Wind from NNW
Wind: NNW 13 mph , 20 km/h, Gust: 21 mph , 33 km/h
Temperature: 61°F , 16°C
Dew Point: 59°F , 15°C
Humidity: 94%
Barometer: 29.85 inHg , 1010.8 hPa
Summary: Light rain
Clouds: Overcast
Visibility: 5 miles , 8 km
Cloud details: Overcast 600 ft
2017/07/24 10:16 KBAX 241016Z AUTO 34011G18KT 5SM -RA OVC006 16/15 A2985 RMK AO2 T01560151
KFNT - Flint, Michigan, USA
Distance from station: SSW 68mi, 109km
Updated: Mon, 24-Jul-2017 5:53am EDT
Overcast
Overcast
 Wind from NW
Wind: NW 7 mph , 11 km/h
Temperature: 63°F , 17°C
Dew Point: 59°F , 15°C
Humidity: 88%
Barometer: 29.87 inHg , 1011.5 hPa
Clouds: Overcast
Visibility: 10 miles , 16 km
Cloud details: Few Clouds 1200 ft
Overcast 2400 ft
2017/07/24 09:53 KFNT 240953Z 32006KT 10SM FEW012 OVC024 17/15 A2987 RMK AO2 SLP109 T01720150
KMBS - Saginaw, Michigan, USA
Distance from station: SW 44mi, 70km
Updated: Mon, 24-Jul-2017 6:29am EDT
Partly cloudy
Partly cloudy
 Wind from NNW
Wind: NNW 13 mph , 20 km/h
Temperature: 61°F , 16°C
Dew Point: 57°F , 14°C
Humidity: 88%
Barometer: 29.91 inHg , 1012.9 hPa
Clouds: Partly cloudy
Visibility: 10 miles , 16 km
Cloud details: Few Clouds 2100 ft
Partly cloudy 3200 ft
2017/07/24 10:29 KMBS 241029Z 33011KT 10SM FEW021 SCT032 16/14 A2991 RMK AO2 T01610144
 
KDTW - Detroit/Wayne, Michigan, USA
Distance from station: SSE 117mi, 188km
Updated: Mon, 24-Jul-2017 6:23am EDT
Mostly cloudy
Mostly cloudy
 Wind from NW
Wind: NW 7 mph , 11 km/h
Temperature: 66°F , 19°C
Dew Point: 63°F , 17°C
Humidity: 88%
Barometer: 29.85 inHg , 1010.8 hPa
Clouds: Mostly cloudy
Visibility: 10 miles , 16 km
Cloud details: Few Clouds 800 ft
Mostly cloudy 2000 ft
Mostly cloudy 12000 ft
2017/07/24 10:23 KDTW 241023Z 32006KT 10SM FEW008 BKN020 BKN120 19/17 A2985 RMK AO2 T01890172 $
KP58 - Port Hope, Michigan, USA
Distance from station: ENE 30mi, 48km
Updated: Mon, 24-Jul-2017 5:51am EDT

 Wind from NNW
Wind: NNW 10 mph , 17 km/h, Gust: 20 mph , 31 km/h
Temperature: 63°F , 17°C
Dew Point: 61°F , 16°C
Humidity: 94%
Barometer: 29.81 inHg , 1009.5 hPa
2017/07/24 09:51 KP58 240951Z AUTO 33009G17KT 17/16 A2981 RMK AO1 SLP090 T01720161
KCFS - Caro/Tuscola, Michigan, USA
Distance from station: S 31mi, 50km
Updated: Mon, 24-Jul-2017 6:15am EDT
Overcast
Overcast
 Wind from NNW
Wind: NNW 9 mph , 15 km/h
Temperature: 63°F , 17°C
Dew Point: 57°F , 14°C
Humidity: 83%
Barometer: 29.87 inHg , 1011.5 hPa
Clouds: Overcast
Visibility: 10 miles , 16 km
Cloud details: Overcast 2700 ft
2017/07/24 10:15 KCFS 241015Z AUTO 33008KT 10SM OVC027 17/14 A2987 RMK AO2 T01650141
 
KPHN - Port Huron, Michigan, USA
Distance from station: SSE 81mi, 131km
Updated: Mon, 24-Jul-2017 6:16am EDT
Mostly cloudy
Mostly cloudy
 Wind from NW
Wind: NW 5 mph , 7 km/h
Temperature: 63°F , 17°C
Dew Point: 59°F , 15°C
Humidity: 88%
Barometer: 29.83 inHg , 1010.2 hPa
Clouds: Mostly cloudy
Visibility: 10 miles , 16 km
Cloud details: Mostly cloudy 1400 ft
Mostly cloudy 2700 ft
2017/07/24 10:16 KPHN 241016Z AUTO 32004KT 10SM BKN014 BKN027 17/15 A2983 RMK AO2
KPTK - Pontiac, Michigan, USA
Distance from station: S 86mi, 138km
Updated: Mon, 24-Jul-2017 6:28am EDT
Overcast
Overcast
 Wind from NNW
Wind: NNW 8 mph , 13 km/h
Temperature: 64°F , 18°C
Dew Point: 61°F , 16°C
Humidity: 88%
Barometer: 29.85 inHg , 1010.8 hPa
Clouds: Overcast
Visibility: 10 miles , 16 km
Cloud details: Mostly cloudy 1200 ft
Overcast 1800 ft
2017/07/24 10:28 KPTK 241028Z 33007KT 10SM BKN012 OVC018 18/16 A2985 RMK AO2 T01780161 $
KMTC - Selfridge Angb, Michigan, USA
Distance from station: SSE 94mi, 151km
Updated: Mon, 24-Jul-2017 6:03am EDT
Mostly cloudy
Mostly cloudy
 Wind from NNW
Wind: NNW 9 mph , 15 km/h
Temperature: 64°F , 18°C
Dew Point: 63°F , 17°C
Humidity: 94%
Barometer: 29.81 inHg , 1009.5 hPa
Clouds: Mostly cloudy
Visibility: 10 miles , 16 km
Cloud details: Mostly cloudy 2500 ft
2017/07/24 10:03 KMTC 241003Z AUTO 33008KT 10SM BKN025 18/17 A2981 RMK AO2 SLP096 $